createdAt,value
2019-04-25T00:02:27.371Z,74.42
2019-04-25T00:05:08.643Z,73.15
2019-04-25T00:07:48.632Z,73.22
2019-04-25T00:10:24.446Z,71.28
2019-04-25T00:13:03.774Z,66.28
2019-04-25T00:15:35.358Z,68.60
2019-04-25T00:18:12.716Z,70.65
2019-04-25T00:20:57.494Z,65.17
2019-04-25T00:23:31.767Z,76.20
2019-04-25T00:26:22.233Z,75.12
2019-04-25T00:28:56.280Z,78.40
2019-04-25T00:31:28.912Z,81.32
2019-04-25T00:34:02.182Z,68.30
2019-04-25T00:36:34.074Z,67.58
2019-04-25T00:39:07.295Z,69.05
2019-04-25T00:41:39.342Z,64.15
2019-04-25T00:44:12.106Z,56.58
2019-04-25T00:46:47.808Z,59.30
2019-04-25T00:49:16.919Z,55.83
2019-04-25T00:51:50.730Z,57.85
2019-04-25T00:54:23.451Z,51.33
2019-04-25T00:56:55.265Z,56.33
2019-04-25T00:59:37.317Z,63.78
2019-04-25T01:02:11.468Z,72.08
2019-04-25T01:07:16.374Z,69.85
2019-04-25T01:09:49.973Z,72.27
2019-04-25T01:12:22.309Z,65.85
2019-04-25T01:14:54.738Z,63.23
2019-04-25T01:17:26.487Z,72.97
2019-04-25T01:19:58.152Z,67.85
2019-04-25T01:22:29.801Z,69.95
2019-04-25T01:25:01.451Z,78.05
2019-04-25T01:27:33.335Z,66.10
2019-04-25T01:30:07.157Z,67.72
2019-04-25T01:32:39.196Z,71.02
2019-04-25T01:35:14.004Z,74.05
2019-04-25T01:37:47.491Z,73.33
2019-04-25T01:40:37.327Z,69.03
2019-04-25T01:43:26.922Z,67.87
2019-04-25T01:45:58.562Z,67.03
2019-04-25T01:48:30.080Z,69.03
2019-04-25T01:51:01.602Z,63.35
2019-04-25T01:53:33.949Z,53.28
2019-04-25T01:56:07.843Z,58.52
2019-04-25T01:58:40.983Z,43.38
2019-04-25T02:01:14.330Z,57.05
2019-04-25T02:03:46.231Z,57.55
2019-04-25T02:06:18.548Z,57.83
2019-04-25T02:08:50.879Z,47.13
2019-04-25T02:11:34.771Z,54.73
2019-04-25T02:14:07.149Z,43.45
2019-04-25T02:16:38.694Z,50.08
2019-04-25T02:19:31.387Z,42.43
2019-04-25T02:22:04.034Z,47.80
2019-04-25T02:24:35.560Z,49.70
2019-04-25T02:27:07.480Z,40.23
2019-04-25T02:29:39.194Z,39.42
2019-04-25T02:32:11.268Z,43.23
2019-04-25T02:34:45.263Z,38.80
2019-04-25T02:37:16.013Z,45.30
2019-04-25T02:39:47.633Z,59.10
2019-04-25T02:42:19.264Z,59.73
2019-04-25T02:44:54.731Z,72.37
2019-04-25T02:47:29.917Z,60.58
2019-04-25T02:50:07.093Z,59.65
2019-04-25T02:52:41.004Z,55.60
2019-04-25T02:55:28.029Z,56.18
2019-04-25T02:57:45.857Z,52.93
2019-04-25T03:00:24.859Z,57.93
2019-04-25T03:02:57.933Z,73.12
2019-04-25T03:05:30.143Z,70.05
2019-04-25T03:08:05.384Z,60.40
2019-04-25T03:10:35.439Z,57.03
2019-04-25T03:13:11.454Z,54.75
2019-04-25T03:18:15.187Z,38.83
2019-04-25T03:20:51.100Z,38.35
2019-04-25T03:23:30.585Z,37.33
2019-04-25T03:26:04.771Z,47.48
2019-04-25T03:28:36.924Z,44.13
2019-04-25T03:31:14.042Z,37.78
2019-04-25T03:33:45.052Z,34.70
2019-04-25T03:38:48.248Z,58.48
2019-04-25T03:41:20.710Z,54.83
2019-04-25T03:43:52.231Z,50.83
2019-04-25T03:46:24.048Z,40.85
2019-04-25T03:48:55.852Z,40.83
2019-04-25T03:51:27.370Z,41.65
2019-04-25T03:53:59.128Z,33.45
2019-04-25T03:56:31.086Z,30.23
2019-04-25T03:59:05.815Z,30.25
2019-04-25T04:01:37.330Z,29.67
2019-04-25T04:04:09.069Z,29.32
2019-04-25T04:06:46.270Z,28.90
2019-04-25T04:09:18.529Z,26.97
2019-04-25T04:11:50.825Z,28.95
2019-04-25T04:14:24.436Z,28.73
2019-04-25T04:17:10.914Z,36.40
2019-04-25T04:19:56.651Z,33.58
2019-04-25T04:22:39.534Z,30.45
2019-04-25T04:25:13.884Z,26.07
2019-04-25T04:27:46.319Z,26.90
2019-04-25T04:30:18.630Z,27.70
2019-04-25T04:32:53.585Z,29.67
2019-04-25T04:35:35.256Z,27.60
2019-04-25T04:38:08.140Z,31.45
2019-04-25T04:40:40.590Z,28.25
2019-04-25T04:43:12.230Z,34.08
2019-04-25T04:45:45.640Z,33.48
2019-04-25T04:48:17.497Z,24.37
2019-04-25T04:50:48.895Z,34.15
2019-04-25T04:53:20.594Z,29.63
2019-04-25T04:55:54.371Z,29.20
2019-04-25T04:58:26.685Z,32.75
2019-04-25T05:00:58.319Z,30.10
2019-04-25T05:03:43.995Z,29.80
2019-04-25T05:06:17.430Z,31.97
2019-04-25T05:08:53.231Z,30.48
2019-04-25T05:11:25.530Z,33.08
2019-04-25T05:13:57.165Z,29.92
2019-04-25T05:16:30.442Z,32.45
2019-04-25T05:19:03.723Z,31.17
2019-04-25T05:21:39.607Z,37.05
2019-04-25T05:24:16.415Z,36.60
2019-04-25T05:26:50.651Z,31.62
2019-04-25T05:29:24.144Z,35.78
2019-04-25T05:31:59.066Z,36.13
2019-04-25T05:34:30.828Z,34.70
2019-04-25T05:37:05.031Z,31.37
2019-04-25T05:39:39.292Z,42.62
2019-04-25T05:42:20.329Z,33.35
2019-04-25T05:44:51.941Z,40.20
2019-04-25T05:47:26.054Z,37.08
2019-04-25T05:49:57.592Z,45.20
2019-04-25T05:52:30.125Z,43.55
2019-04-25T05:55:01.718Z,40.50
2019-04-25T05:57:45.631Z,40.28
2019-04-25T06:00:10.742Z,32.40
2019-04-25T06:02:42.190Z,42.65
2019-04-25T06:08:07.204Z,39.18
2019-04-25T06:10:48.680Z,47.62
2019-04-25T06:13:30.667Z,40.05
2019-04-25T06:16:09.331Z,35.03
2019-04-25T06:18:44.061Z,32.03
2019-04-25T06:21:18.152Z,68.20
2019-04-25T06:23:57.711Z,37.42
2019-04-25T06:26:35.370Z,38.78
2019-04-25T06:29:03.313Z,44.37
2019-04-25T06:31:35.652Z,46.77
2019-04-25T06:34:10.746Z,44.67
2019-04-25T06:36:42.238Z,41.65
2019-04-25T06:39:14.251Z,32.93
2019-04-25T06:41:45.956Z,35.65
2019-04-25T06:44:34.417Z,39.33
2019-04-25T06:47:15.199Z,38.17
2019-04-25T06:49:46.628Z,39.65
2019-04-25T06:52:18.073Z,35.20
2019-04-25T06:54:49.617Z,33.65
2019-04-25T06:57:22.165Z,33.25
2019-04-25T06:59:53.745Z,35.03
2019-04-25T07:02:27.051Z,36.28
2019-04-25T07:04:58.597Z,40.70
2019-04-25T07:07:34.200Z,38.48
2019-04-25T07:10:09.181Z,48.55
2019-04-25T07:12:41.529Z,39.85
2019-04-25T07:15:14.742Z,37.20
2019-04-25T07:17:46.700Z,39.13
2019-04-25T07:20:21.578Z,35.38
2019-04-25T07:22:53.718Z,32.48
2019-04-25T07:25:27.742Z,34.98
2019-04-25T07:28:22.212Z,103.32
2019-04-25T07:30:57.014Z,40.03
2019-04-25T07:33:37.341Z,37.85
2019-04-25T07:36:10.912Z,40.48
2019-04-25T07:38:47.377Z,35.78
2019-04-25T07:41:19.522Z,36.93
2019-04-25T07:43:53.299Z,39.20
2019-04-25T07:46:29.803Z,39.38
2019-04-25T07:49:03.483Z,36.65
2019-04-25T07:51:35.568Z,37.42
2019-04-25T07:54:07.788Z,38.20
2019-04-25T07:56:39.441Z,34.73
2019-04-25T07:59:11.003Z,39.88
2019-04-25T08:02:07.893Z,38.33
2019-04-25T08:04:41.702Z,42.73
2019-04-25T08:07:15.438Z,41.33
2019-04-25T08:09:47.069Z,36.98
2019-04-25T08:12:19.728Z,36.28
2019-04-25T08:15:00.532Z,38.67
2019-04-25T08:17:50.242Z,40.73
2019-04-25T08:20:24.214Z,37.78
2019-04-25T08:22:59.001Z,36.08
2019-04-25T08:25:33.485Z,34.88
2019-04-25T08:28:05.038Z,37.20
2019-04-25T08:30:37.035Z,37.03
2019-04-25T08:33:11.439Z,39.73
2019-04-25T08:36:02.969Z,38.73
2019-04-25T08:38:17.002Z,38.38
2019-04-25T08:40:48.976Z,35.65
2019-04-25T08:43:20.621Z,38.35
2019-04-25T08:45:55.828Z,37.85
2019-04-25T08:48:30.483Z,36.03
2019-04-25T08:51:06.006Z,36.60
2019-04-25T08:53:54.506Z,34.55
2019-04-25T08:56:28.260Z,37.05
2019-04-25T08:59:08.225Z,36.63
2019-04-25T09:01:49.334Z,36.23
2019-04-25T09:04:42.628Z,32.17
2019-04-25T09:07:15.568Z,38.65
2019-04-25T09:09:49.726Z,34.50
2019-04-25T09:14:54.192Z,35.65
2019-04-25T09:17:29.071Z,31.20
2019-04-25T09:20:01.891Z,38.48
2019-04-25T09:22:39.939Z,31.20
2019-04-25T09:25:16.288Z,29.75
2019-04-25T09:27:51.164Z,31.90
2019-04-25T09:30:27.356Z,31.17
2019-04-25T09:33:10.961Z,28.10
2019-04-25T09:35:45.982Z,31.75
2019-04-25T09:38:20.541Z,28.30
2019-04-25T09:40:54.200Z,37.03
2019-04-25T09:43:26.001Z,27.35
2019-04-25T09:46:00.278Z,33.53
2019-04-25T09:48:46.826Z,28.83
2019-04-25T09:51:23.577Z,26.10
2019-04-25T09:53:57.224Z,26.27
2019-04-25T09:56:31.486Z,29.07
2019-04-25T09:59:07.493Z,27.67
2019-04-25T10:01:40.186Z,27.87
2019-04-25T10:04:12.137Z,22.65
2019-04-25T10:06:46.047Z,27.98
2019-04-25T10:09:18.077Z,28.65
2019-04-25T10:11:49.580Z,24.47
2019-04-25T10:14:37.655Z,22.80
2019-04-25T10:17:09.527Z,25.15
2019-04-25T10:19:41.203Z,20.08
2019-04-25T10:22:13.682Z,25.37
2019-04-25T10:24:59.925Z,26.33
2019-04-25T10:27:20.775Z,24.60
2019-04-25T10:29:56.532Z,21.95
2019-04-25T10:32:26.323Z,23.70
2019-04-25T10:37:30.807Z,19.87
2019-04-25T10:40:04.328Z,24.52
2019-04-25T10:42:36.957Z,22.60
2019-04-25T10:45:22.907Z,22.67
2019-04-25T10:47:46.801Z,24.75
2019-04-25T10:53:26.844Z,24.70
2019-04-25T10:56:00.101Z,29.10
2019-04-25T10:58:33.472Z,19.30
2019-04-25T11:01:06.442Z,30.32
2019-04-25T11:03:40.760Z,21.50
2019-04-25T11:06:15.043Z,25.02
2019-04-25T11:08:47.564Z,24.65
2019-04-25T11:11:21.651Z,21.87
2019-04-25T11:13:55.939Z,20.65
2019-04-25T11:16:28.310Z,23.73
2019-04-25T11:18:59.872Z,24.55
2019-04-25T11:21:33.214Z,24.72
2019-04-25T11:24:05.507Z,24.15
2019-04-25T11:26:38.909Z,23.55
2019-04-25T11:29:11.504Z,20.25
2019-04-25T11:31:45.940Z,21.27
2019-04-25T11:34:20.611Z,24.20
2019-04-25T11:36:55.680Z,21.50
2019-04-25T11:39:40.638Z,23.50
2019-04-25T11:42:13.110Z,21.42
2019-04-25T11:47:18.193Z,27.58
2019-04-25T11:49:54.196Z,25.10
2019-04-25T11:52:28.145Z,24.65
2019-04-25T11:54:59.341Z,23.10
2019-04-25T11:57:32.843Z,20.70
2019-04-25T12:00:21.599Z,19.98
2019-04-25T12:02:49.719Z,24.85
2019-04-25T12:05:23.581Z,23.55
2019-04-25T12:07:55.473Z,20.68
2019-04-25T12:10:28.487Z,21.45
2019-04-25T12:13:01.225Z,19.82
2019-04-25T12:15:33.824Z,19.50
2019-04-25T12:18:05.565Z,23.83
2019-04-25T12:20:37.247Z,21.95
2019-04-25T12:23:10.565Z,23.12
2019-04-25T12:25:42.302Z,24.10
2019-04-25T12:28:16.821Z,24.45
2019-04-25T12:30:54.950Z,23.15
2019-04-25T12:33:29.345Z,24.50
2019-04-25T12:36:06.232Z,20.40
2019-04-25T12:38:41.435Z,22.52
2019-04-25T12:41:13.511Z,23.32
2019-04-25T12:44:08.863Z,23.32
2019-04-25T12:46:43.611Z,20.12
2019-04-25T12:49:16.216Z,23.60
2019-04-25T12:51:50.375Z,22.52
2019-04-25T12:54:23.881Z,23.45
2019-04-25T12:56:57.262Z,19.27
2019-04-25T12:59:33.018Z,23.55
2019-04-25T13:02:17.169Z,23.45
2019-04-25T13:04:50.720Z,20.72
2019-04-25T13:07:30.335Z,23.17
2019-04-25T13:10:05.827Z,24.57
2019-04-25T13:12:40.071Z,22.25
2019-04-25T13:15:15.634Z,23.32
2019-04-25T13:17:48.586Z,22.58
2019-04-25T13:20:20.575Z,19.95
2019-04-25T13:22:53.854Z,20.12
2019-04-25T13:25:25.477Z,21.02
2019-04-25T13:28:07.144Z,24.70
2019-04-25T13:31:07.493Z,20.55
2019-04-25T13:33:39.814Z,24.45
2019-04-25T13:36:13.441Z,20.50
2019-04-25T13:38:45.268Z,23.92
2019-04-25T13:41:18.520Z,21.75
2019-04-25T13:43:50.327Z,23.73
2019-04-25T13:46:26.113Z,21.75
2019-04-25T13:48:59.331Z,23.05
2019-04-25T13:54:01.964Z,22.37
2019-04-25T13:56:40.403Z,22.27
2019-04-25T13:59:10.599Z,22.95
2019-04-25T14:01:51.135Z,22.25
2019-04-25T14:04:26.989Z,30.48
2019-04-25T14:06:59.619Z,24.10
2019-04-25T14:09:36.749Z,23.92
2019-04-25T14:12:27.599Z,22.73
2019-04-25T14:14:58.836Z,24.20
2019-04-25T14:17:41.346Z,26.75
2019-04-25T14:20:27.956Z,29.10
2019-04-25T14:23:00.008Z,23.60
2019-04-25T14:25:33.193Z,23.77
2019-04-25T14:28:06.920Z,43.00
2019-04-25T14:30:38.984Z,27.07
2019-04-25T14:33:13.444Z,23.70
2019-04-25T14:35:47.603Z,24.32
2019-04-25T14:38:26.593Z,26.52
2019-04-25T14:41:00.420Z,25.88
2019-04-25T14:43:32.030Z,20.85
2019-04-25T14:46:04.153Z,25.62
2019-04-25T14:48:37.122Z,28.00
2019-04-25T14:51:12.059Z,26.87
2019-04-25T14:53:43.793Z,26.37
2019-04-25T14:56:17.133Z,25.57
2019-04-25T14:58:49.125Z,23.55
2019-04-25T15:01:22.710Z,28.32
2019-04-25T15:03:55.939Z,24.52
2019-04-25T15:06:27.756Z,25.83
2019-04-25T15:09:00.068Z,23.02
2019-04-25T15:11:34.209Z,21.75
2019-04-25T15:14:07.066Z,25.08
2019-04-25T15:16:41.621Z,24.70
2019-04-25T15:19:15.204Z,25.82
2019-04-25T15:21:46.831Z,30.75
2019-04-25T15:24:18.573Z,26.23
2019-04-25T15:26:51.317Z,30.52
2019-04-25T15:31:56.941Z,31.75
2019-04-25T15:34:36.134Z,40.12
2019-04-25T15:37:13.067Z,38.58
2019-04-25T15:39:49.035Z,39.80
2019-04-25T15:42:31.953Z,46.55
2019-04-25T15:45:13.348Z,39.42
2019-04-25T15:47:45.666Z,40.73
2019-04-25T15:50:17.630Z,44.08
2019-04-25T15:52:53.790Z,43.65
2019-04-25T15:55:26.221Z,44.13
2019-04-25T15:58:00.530Z,42.90
2019-04-25T16:00:35.754Z,43.42
2019-04-25T16:03:08.496Z,48.63
2019-04-25T16:05:40.315Z,42.88
2019-04-25T16:08:13.939Z,48.17
2019-04-25T16:10:46.087Z,62.65
2019-04-25T16:13:20.825Z,57.85
2019-04-25T16:15:53.149Z,74.15
2019-04-25T16:18:24.702Z,53.10
2019-04-25T16:20:56.305Z,53.50
2019-04-25T16:23:30.194Z,65.97
2019-04-25T16:26:03.699Z,53.08
2019-04-25T16:28:36.055Z,62.80
2019-04-25T16:31:09.480Z,47.70
2019-04-25T16:33:42.139Z,58.78
2019-04-25T16:36:15.425Z,56.98
2019-04-25T16:38:47.212Z,62.50
2019-04-25T16:41:22.482Z,64.03
2019-04-25T16:43:55.724Z,70.20
2019-04-25T16:46:36.212Z,59.60
2019-04-25T16:49:08.657Z,59.90
2019-04-25T16:51:46.386Z,64.65
2019-04-25T16:54:18.082Z,69.15
2019-04-25T16:56:50.694Z,67.62
2019-04-25T16:59:22.578Z,76.10
2019-04-25T17:01:56.210Z,73.42
2019-04-25T17:04:29.705Z,78.07
2019-04-25T17:07:02.472Z,75.83
2019-04-25T17:09:35.976Z,86.00
2019-04-25T17:12:14.764Z,79.90
2019-04-25T17:14:53.824Z,70.28
2019-04-25T17:17:45.480Z,75.10
2019-04-25T17:20:18.739Z,78.25
2019-04-25T17:22:50.633Z,71.77
2019-04-25T17:25:25.467Z,71.60
2019-04-25T17:27:57.010Z,68.45
2019-04-25T17:30:32.580Z,72.22
2019-04-25T17:33:11.970Z,85.17
2019-04-25T17:35:59.548Z,79.03
2019-04-25T17:38:53.257Z,88.95
2019-04-25T17:41:25.034Z,96.80
2019-04-25T17:43:56.912Z,95.55
2019-04-25T17:46:29.273Z,99.52
2019-04-25T17:49:03.141Z,91.28
2019-04-25T17:51:35.117Z,103.12
2019-04-25T17:54:07.043Z,101.90
2019-04-25T17:56:40.952Z,106.00
2019-04-25T17:59:12.477Z,106.75
2019-04-25T18:01:44.388Z,110.35
2019-04-25T18:04:19.297Z,87.75
2019-04-25T18:06:51.067Z,78.75
2019-04-25T18:09:23.920Z,88.45
2019-04-25T18:11:57.071Z,79.58
2019-04-25T18:14:35.175Z,76.85
2019-04-25T18:17:08.617Z,69.77
2019-04-25T18:19:51.166Z,67.60
2019-04-25T18:22:24.448Z,62.70
2019-04-25T18:25:13.168Z,60.10
2019-04-25T18:27:55.620Z,56.25
2019-04-25T18:30:27.446Z,62.70
2019-04-25T18:33:15.801Z,63.83
2019-04-25T18:35:49.315Z,66.62
2019-04-25T18:38:29.045Z,61.18
2019-04-25T18:41:06.834Z,60.35
2019-04-25T18:43:49.366Z,64.20
2019-04-25T18:46:22.679Z,59.88
2019-04-25T18:48:55.241Z,69.72
2019-04-25T18:51:29.445Z,61.60
2019-04-25T18:54:02.538Z,62.50
2019-04-25T18:56:43.198Z,60.52
2019-04-25T18:59:19.285Z,57.43
2019-04-25T19:01:56.496Z,62.67
2019-04-25T19:04:39.565Z,60.80
2019-04-25T19:07:22.163Z,56.48
2019-04-25T19:09:45.592Z,58.13
2019-04-25T19:12:17.264Z,69.37
2019-04-25T19:14:48.913Z,67.67
2019-04-25T19:17:20.728Z,60.55
2019-04-25T19:19:52.661Z,65.08
2019-04-25T19:22:26.204Z,67.60
2019-04-25T19:24:57.751Z,65.17
2019-04-25T19:27:29.991Z,65.32
2019-04-25T19:30:02.506Z,60.30
2019-04-25T19:32:35.598Z,62.33
2019-04-25T19:35:07.753Z,64.47
2019-04-25T19:37:39.532Z,56.98
2019-04-25T19:40:30.415Z,49.45
2019-04-25T19:43:10.828Z,50.50
2019-04-25T19:45:43.136Z,50.23
2019-04-25T19:48:16.370Z,53.73
2019-04-25T19:50:48.084Z,41.85
2019-04-25T19:53:32.732Z,49.48
2019-04-25T19:56:06.488Z,53.15
2019-04-25T19:58:47.425Z,46.18
2019-04-25T20:01:21.069Z,41.68
2019-04-25T20:04:12.886Z,50.83
2019-04-25T20:07:02.745Z,40.78
2019-04-25T20:09:42.345Z,46.53
2019-04-25T20:12:18.795Z,41.35
2019-04-25T20:14:54.094Z,39.10
2019-04-25T20:17:25.933Z,40.75
2019-04-25T20:19:57.843Z,46.10
2019-04-25T20:22:35.309Z,50.67
2019-04-25T20:25:10.496Z,48.28
2019-04-25T20:27:42.207Z,50.45
2019-04-25T20:32:47.858Z,57.43
2019-04-25T20:35:19.465Z,59.25
2019-04-25T20:37:51.233Z,61.13
2019-04-25T20:40:23.870Z,71.30
2019-04-25T20:42:56.554Z,65.25
2019-04-25T20:45:31.742Z,76.70
2019-04-25T20:48:03.303Z,77.58
2019-04-25T20:50:35.225Z,93.55
2019-04-25T20:53:07.374Z,71.20
2019-04-25T20:55:39.433Z,83.75
2019-04-25T20:58:11.448Z,82.27
2019-04-25T21:00:45.416Z,92.78
2019-04-25T21:03:16.882Z,91.72
2019-04-25T21:05:50.998Z,93.05
2019-04-25T21:08:24.605Z,94.97
2019-04-25T21:10:57.744Z,101.10
2019-04-25T21:13:31.167Z,100.30
2019-04-25T21:16:04.712Z,97.25
2019-04-25T21:18:38.041Z,105.00
2019-04-25T21:21:09.662Z,98.60
2019-04-25T21:23:42.009Z,101.65
2019-04-25T21:26:13.927Z,101.50
2019-04-25T21:28:46.480Z,95.30
2019-04-25T21:31:18.203Z,104.35
2019-04-25T21:33:50.758Z,117.60
2019-04-25T21:36:23.698Z,116.40
2019-04-25T21:38:55.716Z,123.05
2019-04-25T21:41:38.396Z,114.60
2019-04-25T21:44:10.452Z,120.80
2019-04-25T21:46:45.900Z,117.20
2019-04-25T21:49:17.972Z,115.85
2019-04-25T21:51:51.095Z,122.25
2019-04-25T21:54:22.836Z,127.55
2019-04-25T21:56:57.430Z,117.03
2019-04-25T21:59:29.302Z,133.27
2019-04-25T22:02:00.924Z,154.42
2019-04-25T22:04:40.352Z,155.80
2019-04-25T22:07:06.212Z,160.67
2019-04-25T22:09:38.111Z,162.65
2019-04-25T22:12:12.152Z,149.00
2019-04-25T22:14:43.982Z,150.50
2019-04-25T22:17:15.708Z,138.40
2019-04-25T22:19:48.729Z,125.40
2019-04-25T22:22:22.201Z,108.87
2019-04-25T22:24:54.186Z,116.60
2019-04-25T22:27:27.529Z,99.95
2019-04-25T22:29:59.942Z,81.70
2019-04-25T22:32:33.595Z,81.00
2019-04-25T22:35:08.231Z,66.87
2019-04-25T22:37:39.815Z,65.62
2019-04-25T22:40:11.794Z,65.00
2019-04-25T22:42:43.860Z,67.45
2019-04-25T22:45:15.617Z,59.63
2019-04-25T22:47:48.501Z,42.43
2019-04-25T22:50:20.592Z,49.90
2019-04-25T22:52:54.465Z,48.83
2019-04-25T22:55:34.161Z,50.20
2019-04-25T22:58:06.584Z,49.23
2019-04-25T23:00:39.143Z,47.35
2019-04-25T23:03:14.422Z,44.13
2019-04-25T23:05:53.630Z,46.65
2019-04-25T23:08:26.535Z,44.63
2019-04-25T23:10:59.124Z,47.17
2019-04-25T23:13:31.145Z,48.05
2019-04-25T23:16:05.050Z,40.85
2019-04-25T23:18:36.637Z,47.03
2019-04-25T23:21:08.552Z,43.85
2019-04-25T23:23:40.267Z,39.73
2019-04-25T23:26:19.155Z,34.58
2019-04-25T23:28:52.784Z,33.08
2019-04-25T23:31:25.849Z,33.23
2019-04-25T23:33:57.774Z,36.55
2019-04-25T23:36:29.299Z,32.03
2019-04-25T23:39:00.851Z,29.50
2019-04-25T23:41:35.212Z,31.27
2019-04-25T23:44:07.985Z,27.90
2019-04-25T23:46:39.813Z,34.78
2019-04-25T23:49:12.734Z,26.82
2019-04-25T23:51:44.845Z,29.87
2019-04-25T23:54:17.199Z,34.50
2019-04-25T23:56:48.552Z,31.62
2019-04-25T23:59:20.251Z,30.40
